Time;durP1;ratioP1;P1;durP2;ratioP2;P2;SDS_P1;SDS_P2;PMS_P1;PMS_P2;Temp;Humidity;BMP_temperature;BMP_pressure;BME280_temperature;BME280_humidity;BME280_pressure;Samples;Min_cycle;Max_cycle;Signal;HPM_P1;HPM_P2
2023/05/09 00:01:14;;;;;;;;;;;;;;;;;;5035185;28;19909;-15
2023/05/09 00:03:41;;;;;;;;;;;;;;;;;;5034921;28;19929;-16
2023/05/09 00:06:07;;;;;;;;;;;;;;;;;;5035056;28;19912;-16
2023/05/09 00:08:33;;;;;;;;;;;;;;;;;;5035076;28;19913;-15
2023/05/09 00:10:59;;;;;;;;;;;;;;;;;;5035036;28;19909;-15
2023/05/09 00:13:25;;;;;;;;;;;;;;;;;;5034858;28;19912;-16
2023/05/09 00:15:52;;;;;;;;;;;;;;;;;;5034953;28;20004;-15
2023/05/09 00:18:18;;;;;;;;;;;;;;;;;;5034979;28;19932;-15
2023/05/09 00:20:44;;;;;;;;;;;;;;;;;;5034953;28;19910;-15
2023/05/09 00:23:10;;;;;;;;;;;;;;;;;;5034844;28;19909;-16
2023/05/09 00:25:36;;;;;;;;;;;;;;;;;;5035013;28;20336;-16
2023/05/09 00:28:02;;;;;;;;;;;;;;;;;;5034817;28;19910;-16
2023/05/09 00:30:28;;;;;;;;;;;;;;;;;;5034843;28;19920;-15
2023/05/09 00:32:54;;;;;;;;;;;;;;;;;;5034735;28;19909;-15
2023/05/09 00:35:20;;;;;;;;;;;;;;;;;;5034724;28;19917;-16
2023/05/09 00:37:46;;;;;;;;;;;;;;;;;;5034969;28;19909;-16
2023/05/09 00:40:12;;;;;;;;;;;;;;;;;;5034682;28;19960;-16
2023/05/09 00:42:38;;;;;;;;;;;;;;;;;;5034691;28;19945;-15
2023/05/09 00:45:04;;;;;;;;;;;;;;;;;;5034657;28;19916;-15
2023/05/09 00:47:30;;;;;;;;;;;;;;;;;;5034570;28;19913;-16
2023/05/09 00:49:56;;;;;;;;;;;;;;;;;;5037342;28;19908;-17
2023/05/09 00:52:24;;;;;;;;;;;;;;;;;;5038824;28;19912;-17
2023/05/09 00:54:50;;;;;;;;;;;;;;;;;;5038535;28;19909;-17
2023/05/09 00:57:16;;;;;;;;;;;;;;;;;;5038482;28;19909;-17
2023/05/09 00:59:42;;;;;;;;;;;;;;;;;;5038513;28;19909;-17
2023/05/09 01:02:08;;;;;;;;;;;;;;;;;;5038434;28;19909;-16
2023/05/09 01:04:34;;;;;;;;;;;;;;;;;;5038276;28;19921;-16
2023/05/09 01:07:00;;;;;;;;;;;;;;;;;;5038559;28;19924;-17
2023/05/09 01:09:26;;;;;;;;;;;;;;;;;;5038292;28;19944;-17
2023/05/09 01:11:52;;;;;;;;;;;;;;;;;;5038199;28;19924;-15
2023/05/09 01:14:18;;;;;;;;;;;;;;;;;;5038042;28;19956;-16
2023/05/09 01:16:44;;;;;;;;;;;;;;;;;;5038174;28;19909;-14
2023/05/09 01:19:10;;;;;;;;;;;;;;;;;;5038147;28;19916;-15
2023/05/09 01:21:36;;;;;;;;;;;;;;;;;;5038370;28;19996;-17
2023/05/09 01:24:02;;;;;;;;;;;;;;;;;;5037999;28;19916;-17
2023/05/09 01:26:28;;;;;;;;;;;;;;;;;;5038186;28;19913;-15
2023/05/09 01:28:54;;;;;;;;;;;;;;;;;;5038472;28;19909;-15
2023/05/09 01:31:20;;;;;;;;;;;;;;;;;;5037904;28;20363;-14
2023/05/09 01:33:46;;;;;;;;;;;;;;;;;;5037814;28;19910;-17
2023/05/09 01:36:12;;;;;;;;;;;;;;;;;;5038096;28;20008;-18
2023/05/09 01:38:38;;;;;;;;;;;;;;;;;;5037760;28;19921;-16
2023/05/09 01:41:04;;;;;;;;;;;;;;;;;;5037712;28;19909;-15
2023/05/09 01:43:30;;;;;;;;;;;;;;;;;;5037581;28;19947;-15
2023/05/09 01:45:56;;;;;;;;;;;;;;;;;;5037816;28;19952;-16
2023/05/09 01:48:25;;;;;;;;;;;;;;;;;;5037557;28;19920;-15
2023/05/09 01:50:51;;;;;;;;;;;;;;;;;;5037531;28;19921;-15
2023/05/09 01:53:17;;;;;;;;;;;;;;;;;;5037414;28;19913;-16
2023/05/09 01:55:43;;;;;;;;;;;;;;;;;;5036458;28;19909;-15
2023/05/09 01:58:09;;;;;;;;;;;;;;;;;;5037802;28;20295;-24
2023/05/09 02:00:35;;;;;;;;;;;;;;;;;;5036652;28;20000;-15
2023/05/09 02:03:01;;;;;;;;;;;;;;;;;;5037307;28;19975;-16
2023/05/09 02:05:27;;;;;;;;;;;;;;;;;;5036326;28;19916;-15
2023/05/09 02:07:53;;;;;;;;;;;;;;;;;;5037168;28;20032;-16
2023/05/09 02:10:19;;;;;;;;;;;;;;;;;;5037144;28;19948;-16
2023/05/09 02:12:45;;;;;;;;;;;;;;;;;;5037401;28;19939;-16
2023/05/09 02:15:11;;;;;;;;;;;;;;;;;;5037366;28;20290;-14
2023/05/09 02:17:37;;;;;;;;;;;;;;;;;;5037005;28;19913;-15
2023/05/09 02:20:04;;;;;;;;;;;;;;;;;;5037005;28;19919;-14
2023/05/09 02:22:30;;;;;;;;;;;;;;;;;;5036935;28;19955;-16
2023/05/09 02:24:56;;;;;;;;;;;;;;;;;;5036899;28;19948;-15
2023/05/09 02:27:22;;;;;;;;;;;;;;;;;;5036848;28;20247;-16
2023/05/09 02:29:48;;;;;;;;;;;;;;;;;;5037318;28;19970;-15
2023/05/09 02:32:14;;;;;;;;;;;;;;;;;;5036769;28;20011;-15
2023/05/09 02:34:40;;;;;;;;;;;;;;;;;;5037032;28;19909;-16
2023/05/09 02:37:06;;;;;;;;;;;;;;;;;;5037482;28;19909;-16
2023/05/09 02:39:32;;;;;;;;;;;;;;;;;;5037186;28;19920;-15
2023/05/09 02:41:58;;;;;;;;;;;;;;;;;;5037115;28;19935;-16
2023/05/09 02:44:24;;;;;;;;;;;;;;;;;;5036894;28;20105;-15
2023/05/09 02:46:50;;;;;;;;;;;;;;;;;;5036754;28;20412;-14
2023/05/09 02:49:16;;;;;;;;;;;;;;;;;;5036468;28;19955;-14
2023/05/09 02:51:42;;;;;;;;;;;;;;;;;;5036335;28;19963;-17
2023/05/09 02:54:08;;;;;;;;;;;;;;;;;;5036894;28;19916;-16
2023/05/09 02:56:34;;;;;;;;;;;;;;;;;;5035372;28;20015;-16
2023/05/09 02:59:00;;;;;;;;;;;;;;;;;;5036309;28;19909;-15
2023/05/09 03:01:26;;;;;;;;;;;;;;;;;;5036238;28;19909;-16
2023/05/09 03:03:52;;;;;;;;;;;;;;;;;;5036003;28;19921;-16
2023/05/09 03:06:18;;;;;;;;;;;;;;;;;;5036063;28;19921;-15
2023/05/09 03:08:44;;;;;;;;;;;;;;;;;;5036131;28;19955;-14
2023/05/09 03:11:10;;;;;;;;;;;;;;;;;;5035137;28;19909;-15
2023/05/09 03:13:36;;;;;;;;;;;;;;;;;;5035112;28;19916;-15
2023/05/09 03:16:02;;;;;;;;;;;;;;;;;;5036232;28;19916;-15
2023/05/09 03:18:28;;;;;;;;;;;;;;;;;;5035949;28;20000;-15
2023/05/09 03:20:54;;;;;;;;;;;;;;;;;;5036328;28;20335;-14
2023/05/09 03:23:19;;;;;;;;;;;;;;;;;;5036011;28;19996;-15
2023/05/09 03:25:45;;;;;;;;;;;;;;;;;;5036208;28;20012;-16
2023/05/09 03:28:11;;;;;;;;;;;;;;;;;;5035668;28;19909;-15
2023/05/09 03:30:37;;;;;;;;;;;;;;;;;;5035989;28;19909;-16
2023/05/09 03:33:03;;;;;;;;;;;;;;;;;;5035558;28;19992;-15
2023/05/09 03:35:29;;;;;;;;;;;;;;;;;;5035840;28;19999;-14
2023/05/09 03:37:55;;;;;;;;;;;;;;;;;;5035513;28;19953;-16
2023/05/09 03:40:21;;;;;;;;;;;;;;;;;;5035458;28;20340;-16
2023/05/09 03:42:47;;;;;;;;;;;;;;;;;;5035620;28;19909;-15
2023/05/09 03:45:13;;;;;;;;;;;;;;;;;;5035572;28;19987;-15
2023/05/09 03:47:39;;;;;;;;;;;;;;;;;;5035273;28;19928;-16
2023/05/09 03:50:05;;;;;;;;;;;;;;;;;;5035303;28;20015;-16
2023/05/09 03:52:31;;;;;;;;;;;;;;;;;;5035317;28;19913;-15
2023/05/09 03:54:57;;;;;;;;;;;;;;;;;;5035288;28;19992;-15
2023/05/09 03:57:23;;;;;;;;;;;;;;;;;;5035480;28;20328;-16
2023/05/09 03:59:49;;;;;;;;;;;;;;;;;;5034984;28;20016;-15
2023/05/09 04:02:15;;;;;;;;;;;;;;;;;;5034926;28;19909;-16
2023/05/09 04:04:41;;;;;;;;;;;;;;;;;;5034783;28;20008;-15
2023/05/09 04:07:07;;;;;;;;;;;;;;;;;;5034736;28;19917;-16
2023/05/09 04:09:33;;;;;;;;;;;;;;;;;;5035367;28;19990;-15
2023/05/09 04:11:59;;;;;;;;;;;;;;;;;;5034754;28;19928;-15
2023/05/09 04:14:25;;;;;;;;;;;;;;;;;;5035238;28;19920;-16
2023/05/09 04:16:51;;;;;;;;;;;;;;;;;;5034755;28;20292;-16
2023/05/09 04:19:17;;;;;;;;;;;;;;;;;;5034986;28;19909;-15
2023/05/09 04:21:43;;;;;;;;;;;;;;;;;;5035050;28;20346;-14
2023/05/09 04:24:09;;;;;;;;;;;;;;;;;;5034650;28;19920;-15
2023/05/09 04:26:37;;;;;;;;;;;;;;;;;;5034862;28;20225;-16
2023/05/09 04:29:03;;;;;;;;;;;;;;;;;;5034928;28;19956;-16
2023/05/09 04:31:30;;;;;;;;;;;;;;;;;;5034630;28;19913;-17
2023/05/09 04:33:57;;;;;;;;;;;;;;;;;;5034719;28;19936;-16
2023/05/09 04:36:23;;;;;;;;;;;;;;;;;;5034998;28;20055;-16
2023/05/09 04:38:49;;;;;;;;;;;;;;;;;;5034316;28;20312;-16
2023/05/09 04:41:15;;;;;;;;;;;;;;;;;;5034322;28;20248;-16
2023/05/09 04:43:42;;;;;;;;;;;;;;;;;;5034296;28;19917;-15
2023/05/09 04:46:08;;;;;;;;;;;;;;;;;;5034648;28;19913;-16
2023/05/09 04:48:34;;;;;;;;;;;;;;;;;;5034247;28;19913;-15
2023/05/09 04:51:00;;;;;;;;;;;;;;;;;;5034370;28;19944;-18
2023/05/09 04:53:27;;;;;;;;;;;;;;;;;;5034323;28;20039;-18
2023/05/09 04:55:53;;;;;;;;;;;;;;;;;;5034177;28;19959;-17
2023/05/09 04:58:19;;;;;;;;;;;;;;;;;;5034385;28;19967;-16
2023/05/09 05:00:45;;;;;;;;;;;;;;;;;;5034198;28;19996;-16
2023/05/09 05:03:11;;;;;;;;;;;;;;;;;;5033857;28;19932;-15
2023/05/09 05:05:39;;;;;;;;;;;;;;;;;;5034430;28;19909;-15
2023/05/09 05:08:05;;;;;;;;;;;;;;;;;;5034158;28;20095;-15
2023/05/09 05:10:31;;;;;;;;;;;;;;;;;;5034551;28;19967;-16
2023/05/09 05:12:57;;;;;;;;;;;;;;;;;;5034267;28;19913;-15
2023/05/09 05:15:23;;;;;;;;;;;;;;;;;;5034177;28;19909;-15
2023/05/09 05:17:49;;;;;;;;;;;;;;;;;;5034100;28;19909;-14
2023/05/09 05:20:15;;;;;;;;;;;;;;;;;;5034103;28;19915;-16
2023/05/09 05:22:41;;;;;;;;;;;;;;;;;;5033871;28;19909;-17
2023/05/09 05:25:07;;;;;;;;;;;;;;;;;;5034000;28;20370;-16
2023/05/09 05:27:33;;;;;;;;;;;;;;;;;;5033959;28;19917;-17
2023/05/09 05:29:59;;;;;;;;;;;;;;;;;;5034033;28;19917;-16
2023/05/09 05:32:24;;;;;;;;;;;;;;;;;;5033837;28;20232;-16
2023/05/09 05:34:51;;;;;;;;;;;;;;;;;;5033826;28;20000;-15
2023/05/09 05:37:17;;;;;;;;;;;;;;;;;;5036624;28;20007;-16
2023/05/09 05:39:43;;;;;;;;;;;;;;;;;;5037326;28;19952;-15
2023/05/09 05:42:09;;;;;;;;;;;;;;;;;;5037707;28;19910;-17
2023/05/09 05:44:35;;;;;;;;;;;;;;;;;;5037652;28;20335;-15
2023/05/09 05:47:01;;;;;;;;;;;;;;;;;;5037475;28;20008;-16
2023/05/09 05:49:27;;;;;;;;;;;;;;;;;;5037429;28;19916;-15
2023/05/09 05:51:52;;;;;;;;;;;;;;;;;;5037315;28;19932;-15
2023/05/09 05:54:18;;;;;;;;;;;;;;;;;;5037447;28;20355;-16
2023/05/09 05:56:44;;;;;;;;;;;;;;;;;;5037032;28;19935;-15
2023/05/09 05:59:10;;;;;;;;;;;;;;;;;;5037129;28;19909;-15
2023/05/09 06:01:36;;;;;;;;;;;;;;;;;;5037200;28;20279;-16
2023/05/09 06:04:02;;;;;;;;;;;;;;;;;;5036735;28;19945;-16
2023/05/09 06:06:28;;;;;;;;;;;;;;;;;;5037293;28;19923;-15
2023/05/09 06:08:54;;;;;;;;;;;;;;;;;;5037453;28;20320;-15
2023/05/09 06:11:20;;;;;;;;;;;;;;;;;;5036013;28;19996;-15
2023/05/09 06:13:46;;;;;;;;;;;;;;;;;;5037071;28;20004;-16
2023/05/09 06:16:12;;;;;;;;;;;;;;;;;;5036781;28;19909;-15
2023/05/09 06:18:39;;;;;;;;;;;;;;;;;;5036211;28;19909;-15
2023/05/09 06:21:05;;;;;;;;;;;;;;;;;;5037020;28;19996;-16
2023/05/09 06:23:31;;;;;;;;;;;;;;;;;;5036421;28;19944;-15
2023/05/09 06:25:57;;;;;;;;;;;;;;;;;;5036156;28;19909;-16
2023/05/09 06:28:22;;;;;;;;;;;;;;;;;;5036154;28;19909;-17
2023/05/09 06:30:48;;;;;;;;;;;;;;;;;;5036166;28;19909;-18
2023/05/09 06:33:14;;;;;;;;;;;;;;;;;;5036074;28;20244;-16
2023/05/09 06:35:40;;;;;;;;;;;;;;;;;;5036094;28;19909;-15
2023/05/09 06:38:06;;;;;;;;;;;;;;;;;;5036322;28;19913;-15
2023/05/09 06:40:32;;;;;;;;;;;;;;;;;;5036328;28;19916;-19
2023/05/09 06:42:58;;;;;;;;;;;;;;;;;;5036316;28;19909;-16
2023/05/09 06:45:25;;;;;;;;;;;;;;;;;;5036422;28;19963;-17
2023/05/09 06:47:51;;;;;;;;;;;;;;;;;;5035976;28;20252;-16
2023/05/09 06:50:17;;;;;;;;;;;;;;;;;;5036010;28;20190;-15
2023/05/09 06:52:44;;;;;;;;;;;;;;;;;;5036206;28;19913;-14
2023/05/09 06:55:09;;;;;;;;;;;;;;;;;;5036062;28;19937;-18
2023/05/09 06:57:35;;;;;;;;;;;;;;;;;;5035949;28;19998;-18
2023/05/09 07:00:01;;;;;;;;;;;;;;;;;;5034846;28;20340;-17
2023/05/09 07:02:27;;;;;;;;;;;;;;;;;;5035655;28;19996;-18
2023/05/09 07:04:53;;;;;;;;;;;;;;;;;;5035879;28;19913;-17
2023/05/09 07:07:19;;;;;;;;;;;;;;;;;;5035774;28;19913;-18
2023/05/09 07:09:45;;;;;;;;;;;;;;;;;;5035632;28;19945;-18
2023/05/09 07:12:11;;;;;;;;;;;;;;;;;;5035732;28;19909;-18
2023/05/09 07:14:37;;;;;;;;;;;;;;;;;;5035765;28;19917;-17
2023/05/09 07:17:03;;;;;;;;;;;;;;;;;;5035753;28;19920;-18
2023/05/09 07:19:29;;;;;;;;;;;;;;;;;;5034703;28;20011;-18
2023/05/09 07:21:55;;;;;;;;;;;;;;;;;;5035420;28;20316;-18
2023/05/09 07:24:21;;;;;;;;;;;;;;;;;;5036279;28;20246;-17
2023/05/09 07:26:47;;;;;;;;;;;;;;;;;;5035687;28;19913;-18
2023/05/09 07:29:13;;;;;;;;;;;;;;;;;;5035589;28;19913;-18
2023/05/09 07:31:39;;;;;;;;;;;;;;;;;;5035649;28;19909;-18
2023/05/09 07:34:05;;;;;;;;;;;;;;;;;;5035183;28;19920;-18
2023/05/09 07:36:31;;;;;;;;;;;;;;;;;;5035573;28;19909;-18
2023/05/09 07:38:57;;;;;;;;;;;;;;;;;;5035323;28;19909;-18
2023/05/09 07:41:23;;;;;;;;;;;;;;;;;;5035482;28;19924;-18
2023/05/09 07:43:49;;;;;;;;;;;;;;;;;;5034292;28;20402;-18
2023/05/09 07:46:15;;;;;;;;;;;;;;;;;;5035719;28;20259;-17
2023/05/09 07:48:41;;;;;;;;;;;;;;;;;;5035053;28;19945;-17
2023/05/09 07:51:07;;;;;;;;;;;;;;;;;;5035044;28;19979;-18
2023/05/09 07:53:33;;;;;;;;;;;;;;;;;;5034906;28;19929;-18
2023/05/09 07:55:59;;;;;;;;;;;;;;;;;;5035074;28;20012;-18
2023/05/09 07:58:25;;;;;;;;;;;;;;;;;;5034792;28;19919;-18
2023/05/09 08:00:51;;;;;;;;;;;;;;;;;;5035103;28;19909;-19
2023/05/09 08:03:19;;;;;;;;;;;;;;;;;;5034694;28;19979;-19
2023/05/09 08:05:45;;;;;;;;;;;;;;;;;;5034910;28;19909;-18
2023/05/09 08:08:11;;;;;;;;;;;;;;;;;;5034762;28;19924;-19
2023/05/09 08:10:37;;;;;;;;;;;;;;;;;;5034853;28;19909;-17
2023/05/09 08:13:03;;;;;;;;;;;;;;;;;;5034623;28;20096;-18
2023/05/09 08:15:30;;;;;;;;;;;;;;;;;;5034653;28;19909;-17
2023/05/09 08:17:56;;;;;;;;;;;;;;;;;;5034457;28;19931;-17
2023/05/09 08:20:23;;;;;;;;;;;;;;;;;;5034666;28;19909;-17
2023/05/09 08:22:49;;;;;;;;;;;;;;;;;;5034707;28;20256;-17
2023/05/09 08:25:17;;;;;;;;;;;;;;;;;;5034627;28;19909;-17
2023/05/09 08:27:43;;;;;;;;;;;;;;;;;;5034470;28;19913;-17
2023/05/09 08:30:09;;;;;;;;;;;;;;;;;;5034441;28;19936;-17
2023/05/09 08:32:35;;;;;;;;;;;;;;;;;;5034449;28;19909;-17
2023/05/09 08:35:01;;;;;;;;;;;;;;;;;;5034698;28;20019;-17
2023/05/09 08:37:27;;;;;;;;;;;;;;;;;;5034153;28;19913;-18
2023/05/09 08:39:53;;;;;;;;;;;;;;;;;;5034322;28;19913;-18
2023/05/09 08:42:21;;;;;;;;;;;;;;;;;;5034176;28;19909;-19
2023/05/09 08:44:47;;;;;;;;;;;;;;;;;;5033972;28;19909;-18
2023/05/09 08:47:13;;;;;;;;;;;;;;;;;;5034034;28;19928;-18
2023/05/09 08:49:39;;;;;;;;;;;;;;;;;;5033857;28;19909;-17
2023/05/09 08:52:05;;;;;;;;;;;;;;;;;;5033805;28;19956;-18
2023/05/09 08:54:31;;;;;;;;;;;;;;;;;;5034058;28;20340;-18
2023/05/09 08:56:57;;;;;;;;;;;;;;;;;;5033760;28;19909;-18
2023/05/09 08:59:23;;;;;;;;;;;;;;;;;;5032866;28;20297;-18
2023/05/09 09:01:49;;;;;;;;;;;;;;;;;;5034202;28;19955;-18
2023/05/09 09:04:16;;;;;;;;;;;;;;;;;;5033605;28;19970;-18
2023/05/09 09:06:42;;;;;;;;;;;;;;;;;;5033600;28;20344;-18
2023/05/09 09:09:08;;;;;;;;;;;;;;;;;;5033743;28;19909;-17
2023/05/09 09:11:34;;;;;;;;;;;;;;;;;;5035585;28;19979;-17
2023/05/09 09:14:00;;;;;;;;;;;;;;;;;;5037722;28;20251;-17
2023/05/09 09:16:26;;;;;;;;;;;;;;;;;;5037437;28;19909;-18
2023/05/09 09:18:52;;;;;;;;;;;;;;;;;;5037299;28;19920;-17
2023/05/09 09:21:22;;;;;;;;;;;;;;;;;;5037721;28;19910;-17
2023/05/09 09:23:48;;;;;;;;;;;;;;;;;;5037887;28;19962;-20
2023/05/09 09:26:14;;;;;;;;;;;;;;;;;;5037640;28;19921;-18
2023/05/09 09:28:40;;;;;;;;;;;;;;;;;;5037576;28;19909;-19
2023/05/09 09:31:06;;;;;;;;;;;;;;;;;;5036412;28;19975;-18
2023/05/09 09:33:32;;;;;;;;;;;;;;;;;;5037427;28;20005;-19
2023/05/09 09:35:58;;;;;;;;;;;;;;;;;;5037316;28;20311;-18
2023/05/09 09:38:24;;;;;;;;;;;;;;;;;;5037319;28;20391;-17
2023/05/09 09:40:50;;;;;;;;;;;;;;;;;;5037379;28;19910;-18
2023/05/09 09:43:16;;;;;;;;;;;;;;;;;;5037228;28;19916;-17
2023/05/09 09:45:42;;;;;;;;;;;;;;;;;;5036361;28;19974;-17
2023/05/09 09:48:08;;;;;;;;;;;;;;;;;;5037160;28;19924;-18
2023/05/09 09:50:34;;;;;;;;;;;;;;;;;;5037736;28;19913;-18
2023/05/09 09:53:00;;;;;;;;;;;;;;;;;;5037062;28;20204;-18
2023/05/09 09:55:26;;;;;;;;;;;;;;;;;;5037231;28;19915;-17
2023/05/09 09:57:52;;;;;;;;;;;;;;;;;;5037262;28;19909;-17
2023/05/09 10:00:18;;;;;;;;;;;;;;;;;;5037565;28;20351;-18
2023/05/09 10:02:44;;;;;;;;;;;;;;;;;;5036672;28;19917;-17
2023/05/09 10:05:10;;;;;;;;;;;;;;;;;;5037028;28;19915;-18
2023/05/09 10:07:36;;;;;;;;;;;;;;;;;;5035869;28;19913;-17
2023/05/09 10:10:04;;;;;;;;;;;;;;;;;;5037148;28;19909;-17
2023/05/09 10:12:33;;;;;;;;;;;;;;;;;;5036763;28;19909;-19
2023/05/09 10:14:59;;;;;;;;;;;;;;;;;;5035852;28;19913;-18
2023/05/09 10:17:26;;;;;;;;;;;;;;;;;;5036187;28;19909;-21
2023/05/09 10:19:52;;;;;;;;;;;;;;;;;;5037098;28;19953;-18
2023/05/09 10:22:18;;;;;;;;;;;;;;;;;;5035121;28;20260;-18
2023/05/09 10:24:44;;;;;;;;;;;;;;;;;;5037135;28;19920;-18
2023/05/09 10:27:10;;;;;;;;;;;;;;;;;;5036556;28;19913;-18
2023/05/09 10:29:36;;;;;;;;;;;;;;;;;;5036856;28;20291;-19
2023/05/09 10:32:05;;;;;;;;;;;;;;;;;;5035502;28;19909;-19
2023/05/09 10:34:31;;;;;;;;;;;;;;;;;;5036813;28;19908;-18
2023/05/09 10:36:59;;;;;;;;;;;;;;;;;;5036547;28;19967;-18
2023/05/09 10:39:25;;;;;;;;;;;;;;;;;;5035410;28;19913;-18
2023/05/09 10:41:52;;;;;;;;;;;;;;;;;;5036104;28;19971;-18
2023/05/09 10:44:18;;;;;;;;;;;;;;;;;;5036305;28;19951;-17
2023/05/09 10:46:44;;;;;;;;;;;;;;;;;;5035945;28;19917;-18
2023/05/09 10:49:10;;;;;;;;;;;;;;;;;;5036130;28;19951;-18
2023/05/09 10:51:36;;;;;;;;;;;;;;;;;;5036472;28;20003;-18
2023/05/09 10:54:02;;;;;;;;;;;;;;;;;;5034868;28;20273;-18
2023/05/09 10:56:28;;;;;;;;;;;;;;;;;;5035663;28;19913;-18
2023/05/09 10:58:54;;;;;;;;;;;;;;;;;;5035754;28;19920;-18
2023/05/09 11:01:19;;;;;;;;;;;;;;;;;;5035479;28;19909;-19
2023/05/09 11:03:46;;;;;;;;;;;;;;;;;;5035431;28;19925;-19
2023/05/09 11:06:11;;;;;;;;;;;;;;;;;;5035161;28;20209;-18
2023/05/09 11:08:37;;;;;;;;;;;;;;;;;;5035465;28;19916;-18
2023/05/09 11:11:04;;;;;;;;;;;;;;;;;;5035280;28;19913;-20
2023/05/09 11:13:29;;;;;;;;;;;;;;;;;;5035125;28;19909;-20
2023/05/09 11:15:55;;;;;;;;;;;;;;;;;;5034118;28;19959;-17
2023/05/09 11:18:21;;;;;;;;;;;;;;;;;;5035081;28;20004;-21
2023/05/09 11:20:47;;;;;;;;;;;;;;;;;;5034110;28;19928;-19
2023/05/09 11:23:16;;;;;;;;;;;;;;;;;;5035088;28;19971;-18
2023/05/09 11:25:42;;;;;;;;;;;;;;;;;;5035205;28;20362;-17
2023/05/09 11:28:08;;;;;;;;;;;;;;;;;;5034118;28;20008;-17
2023/05/09 11:30:34;;;;;;;;;;;;;;;;;;5035240;28;20008;-18
2023/05/09 11:33:05;;;;;;;;;;;;;;;;;;5034004;28;20129;-18
2023/05/09 11:35:32;;;;;;;;;;;;;;;;;;5035126;28;20256;-17
2023/05/09 11:37:59;;;;;;;;;;;;;;;;;;5035397;28;19959;-18
2023/05/09 11:40:24;;;;;;;;;;;;;;;;;;5035184;28;20012;-22
2023/05/09 11:42:54;;;;;;;;;;;;;;;;;;5035307;28;19937;-18
2023/05/09 11:45:20;;;;;;;;;;;;;;;;;;5035288;28;19959;-19
2023/05/09 11:47:46;;;;;;;;;;;;;;;;;;5034860;28;19921;-17
2023/05/09 11:50:12;;;;;;;;;;;;;;;;;;5033936;28;19909;-19
2023/05/09 11:52:38;;;;;;;;;;;;;;;;;;5034969;28;19999;-19
2023/05/09 11:55:04;;;;;;;;;;;;;;;;;;5035216;28;19944;-18
2023/05/09 11:57:30;;;;;;;;;;;;;;;;;;5034841;28;19956;-18
2023/05/09 11:59:56;;;;;;;;;;;;;;;;;;5034788;28;19916;-18
2023/05/09 12:02:23;;;;;;;;;;;;;;;;;;5034765;28;20387;-18
2023/05/09 12:04:49;;;;;;;;;;;;;;;;;;5035007;28;19921;-18
2023/05/09 12:07:16;;;;;;;;;;;;;;;;;;5035175;28;20395;-17
2023/05/09 12:09:42;;;;;;;;;;;;;;;;;;5033684;28;19988;-17
2023/05/09 12:12:10;;;;;;;;;;;;;;;;;;5034394;28;19909;-18
2023/05/09 12:14:36;;;;;;;;;;;;;;;;;;5035178;28;20016;-18
2023/05/09 12:17:02;;;;;;;;;;;;;;;;;;5034840;28;20308;-18
2023/05/09 12:19:28;;;;;;;;;;;;;;;;;;5034445;28;19908;-19
2023/05/09 12:21:54;;;;;;;;;;;;;;;;;;5034767;28;20020;-28
2023/05/09 12:24:20;;;;;;;;;;;;;;;;;;5033721;28;19909;-18
2023/05/09 12:26:46;;;;;;;;;;;;;;;;;;5034545;28;19938;-19
2023/05/09 12:29:12;;;;;;;;;;;;;;;;;;5034398;28;20242;-17
2023/05/09 12:31:38;;;;;;;;;;;;;;;;;;5033358;28;19909;-18
2023/05/09 12:34:04;;;;;;;;;;;;;;;;;;5034310;28;19923;-19
2023/05/09 12:36:30;;;;;;;;;;;;;;;;;;5034123;28;19940;-19
2023/05/09 12:38:56;;;;;;;;;;;;;;;;;;5034640;28;19909;-17
2023/05/09 12:41:23;;;;;;;;;;;;;;;;;;5034078;28;19916;-18
2023/05/09 12:43:49;;;;;;;;;;;;;;;;;;5034088;28;19955;-18
2023/05/09 12:46:15;;;;;;;;;;;;;;;;;;5035991;28;20314;-17
2023/05/09 12:48:42;;;;;;;;;;;;;;;;;;5038490;28;19909;-18
2023/05/09 12:51:08;;;;;;;;;;;;;;;;;;5038175;28;20340;-18
2023/05/09 12:53:34;;;;;;;;;;;;;;;;;;5038219;28;19924;-17
2023/05/09 12:56:01;;;;;;;;;;;;;;;;;;5038112;28;19912;-17
2023/05/09 12:58:27;;;;;;;;;;;;;;;;;;5038630;28;20013;-17
2023/05/09 13:00:53;;;;;;;;;;;;;;;;;;5037125;28;20321;-18
2023/05/09 13:03:19;;;;;;;;;;;;;;;;;;5037069;28;19925;-18
2023/05/09 13:05:45;;;;;;;;;;;;;;;;;;5038348;28;19920;-18
2023/05/09 13:08:11;;;;;;;;;;;;;;;;;;5038194;28;20350;-19
2023/05/09 13:10:36;;;;;;;;;;;;;;;;;;5038535;28;20333;-18
2023/05/09 13:13:02;;;;;;;;;;;;;;;;;;5037921;28;20260;-18
2023/05/09 13:15:29;;;;;;;;;;;;;;;;;;5038027;28;20418;-16
2023/05/09 13:17:54;;;;;;;;;;;;;;;;;;5037930;28;19916;-17
2023/05/09 13:20:20;;;;;;;;;;;;;;;;;;5038188;28;19913;-17
2023/05/09 13:22:46;;;;;;;;;;;;;;;;;;5036982;28;19917;-18
2023/05/09 13:25:12;;;;;;;;;;;;;;;;;;5037855;28;19909;-18
2023/05/09 13:27:38;;;;;;;;;;;;;;;;;;5036703;28;19928;-18
2023/05/09 13:30:06;;;;;;;;;;;;;;;;;;5037853;28;19909;-18
2023/05/09 13:32:32;;;;;;;;;;;;;;;;;;5037945;28;19948;-19
2023/05/09 13:34:58;;;;;;;;;;;;;;;;;;5038039;28;20383;-18
2023/05/09 13:37:25;;;;;;;;;;;;;;;;;;5037468;28;20327;-18
2023/05/09 13:39:51;;;;;;;;;;;;;;;;;;5037777;28;19945;-18
2023/05/09 13:42:17;;;;;;;;;;;;;;;;;;5037538;28;19941;-17
2023/05/09 13:44:43;;;;;;;;;;;;;;;;;;5037745;28;19916;-18
2023/05/09 13:47:10;;;;;;;;;;;;;;;;;;5037383;28;19913;-17
2023/05/09 13:49:37;;;;;;;;;;;;;;;;;;5037712;28;19970;-18
2023/05/09 13:52:03;;;;;;;;;;;;;;;;;;5037312;28;19913;-17
2023/05/09 13:54:33;;;;;;;;;;;;;;;;;;5037282;28;19959;-18
2023/05/09 13:57:00;;;;;;;;;;;;;;;;;;5036412;28;20041;-19
2023/05/09 13:59:26;;;;;;;;;;;;;;;;;;5037403;28;19936;-18
2023/05/09 14:01:52;;;;;;;;;;;;;;;;;;5036550;28;20329;-18
2023/05/09 14:04:17;;;;;;;;;;;;;;;;;;5036952;28;19921;-18
2023/05/09 14:06:46;;;;;;;;;;;;;;;;;;5037250;28;19964;-18
2023/05/09 14:09:14;;;;;;;;;;;;;;;;;;5036955;28;19909;-18
2023/05/09 14:11:40;;;;;;;;;;;;;;;;;;5037416;28;19909;-18
2023/05/09 14:14:07;;;;;;;;;;;;;;;;;;5037055;28;19995;-17
2023/05/09 14:16:33;;;;;;;;;;;;;;;;;;5035740;28;19909;-18
2023/05/09 14:18:59;;;;;;;;;;;;;;;;;;5036650;28;19913;-18
2023/05/09 14:21:25;;;;;;;;;;;;;;;;;;5036789;28;19920;-19
2023/05/09 14:23:50;;;;;;;;;;;;;;;;;;5036697;28;19909;-17
2023/05/09 14:26:17;;;;;;;;;;;;;;;;;;5036517;28;19909;-17
2023/05/09 14:28:43;;;;;;;;;;;;;;;;;;5036676;28;19913;-18
2023/05/09 14:31:09;;;;;;;;;;;;;;;;;;5036588;28;20247;-17
2023/05/09 14:33:35;;;;;;;;;;;;;;;;;;5036466;28;19964;-18
2023/05/09 14:36:01;;;;;;;;;;;;;;;;;;5036508;28;19917;-18
2023/05/09 14:38:28;;;;;;;;;;;;;;;;;;5036334;28;19909;-18
2023/05/09 14:40:55;;;;;;;;;;;;;;;;;;5035429;28;19963;-18
2023/05/09 14:43:21;;;;;;;;;;;;;;;;;;5036243;28;20000;-18
2023/05/09 14:45:47;;;;;;;;;;;;;;;;;;5036527;28;20016;-17
2023/05/09 14:48:13;;;;;;;;;;;;;;;;;;5036222;28;20352;-17
2023/05/09 14:50:39;;;;;;;;;;;;;;;;;;5036631;28;19991;-18
2023/05/09 14:53:05;;;;;;;;;;;;;;;;;;5036255;28;19936;-18
2023/05/09 14:55:31;;;;;;;;;;;;;;;;;;5036165;28;20264;-19
2023/05/09 14:57:57;;;;;;;;;;;;;;;;;;5036524;28;20332;-17
2023/05/09 15:00:24;;;;;;;;;;;;;;;;;;5036143;28;19909;-18
2023/05/09 15:02:50;;;;;;;;;;;;;;;;;;5035631;28;20268;-18
2023/05/09 15:05:16;;;;;;;;;;;;;;;;;;5036268;28;19909;-17
2023/05/09 15:07:42;;;;;;;;;;;;;;;;;;5035866;28;19924;-17
2023/05/09 15:10:08;;;;;;;;;;;;;;;;;;5035714;28;20016;-18
2023/05/09 15:12:34;;;;;;;;;;;;;;;;;;5035911;28;19935;-18
2023/05/09 15:15:00;;;;;;;;;;;;;;;;;;5035877;28;19916;-18
2023/05/09 15:17:26;;;;;;;;;;;;;;;;;;5035919;28;20328;-18
2023/05/09 15:19:52;;;;;;;;;;;;;;;;;;5035494;28;20344;-18
2023/05/09 15:22:18;;;;;;;;;;;;;;;;;;5035597;28;19913;-18
2023/05/09 15:24:44;;;;;;;;;;;;;;;;;;5035399;28;19917;-18
2023/05/09 15:27:10;;;;;;;;;;;;;;;;;;5035331;28;19913;-17
2023/05/09 15:29:36;;;;;;;;;;;;;;;;;;5035734;28;19920;-18
2023/05/09 15:32:02;;;;;;;;;;;;;;;;;;5035272;28;20260;-18
2023/05/09 15:34:28;;;;;;;;;;;;;;;;;;5035286;28;19909;-17
2023/05/09 15:36:54;;;;;;;;;;;;;;;;;;5035593;28;19913;-16
2023/05/09 15:39:20;;;;;;;;;;;;;;;;;;5035779;28;19963;-17
2023/05/09 15:41:46;;;;;;;;;;;;;;;;;;5035316;28;19910;-18
2023/05/09 15:44:13;;;;;;;;;;;;;;;;;;5035455;28;19919;-18
2023/05/09 15:46:39;;;;;;;;;;;;;;;;;;5035375;28;20017;-19
2023/05/09 15:49:05;;;;;;;;;;;;;;;;;;5035507;28;19909;-18
2023/05/09 15:51:31;;;;;;;;;;;;;;;;;;5035499;28;19919;-18
2023/05/09 15:53:57;;;;;;;;;;;;;;;;;;5034957;28;20336;-19
2023/05/09 15:56:23;;;;;;;;;;;;;;;;;;5034957;28;19916;-18
2023/05/09 15:58:49;;;;;;;;;;;;;;;;;;5035077;28;19909;-18
2023/05/09 16:01:15;;;;;;;;;;;;;;;;;;5035077;28;19909;-18
2023/05/09 16:03:41;;;;;;;;;;;;;;;;;;5033723;28;19927;-18
2023/05/09 16:06:07;;;;;;;;;;;;;;;;;;5035520;28;19945;-18
2023/05/09 16:08:33;;;;;;;;;;;;;;;;;;5034595;28;20332;-18
2023/05/09 16:11:00;;;;;;;;;;;;;;;;;;5034516;28;19909;-19
2023/05/09 16:13:26;;;;;;;;;;;;;;;;;;5034837;28;19917;-17
2023/05/09 16:15:52;;;;;;;;;;;;;;;;;;5035174;28;19909;-17
2023/05/09 16:18:18;;;;;;;;;;;;;;;;;;5034786;28;20241;-18
2023/05/09 16:20:44;;;;;;;;;;;;;;;;;;5034855;28;19920;-18
2023/05/09 16:23:10;;;;;;;;;;;;;;;;;;5035152;28;19980;-18
2023/05/09 16:25:36;;;;;;;;;;;;;;;;;;5035012;28;20350;-17
2023/05/09 16:28:02;;;;;;;;;;;;;;;;;;5034645;28;19991;-19
2023/05/09 16:30:28;;;;;;;;;;;;;;;;;;5034580;28;19909;-18
2023/05/09 16:32:55;;;;;;;;;;;;;;;;;;5034870;28;19979;-18
2023/05/09 16:35:21;;;;;;;;;;;;;;;;;;5035205;28;20004;-18
2023/05/09 16:37:47;;;;;;;;;;;;;;;;;;5034525;28;19909;-18